sensor_id;sensor_type;location;lat;lon;timestamp;P1;durP1;ratioP1;P2;durP2;ratioP2
26750;SDS011;14345;48.272;25.926;2023-02-18T00:00:15;7.90;;;5.65;;
26750;SDS011;14345;48.272;25.926;2023-02-18T00:02:42;10.27;;;6.32;;
26750;SDS011;14345;48.272;25.926;2023-02-18T00:05:08;7.35;;;5.35;;
26750;SDS011;14345;48.272;25.926;2023-02-18T00:07:35;9.05;;;5.75;;
26750;SDS011;14345;48.272;25.926;2023-02-18T00:10:02;8.70;;;6.10;;
26750;SDS011;14345;48.272;25.926;2023-02-18T00:12:29;6.97;;;5.32;;
26750;SDS011;14345;48.272;25.926;2023-02-18T00:14:55;4.95;;;3.75;;
26750;SDS011;14345;48.272;25.926;2023-02-18T00:17:21;3.88;;;2.50;;
26750;SDS011;14345;48.272;25.926;2023-02-18T00:19:47;3.00;;;1.88;;
26750;SDS011;14345;48.272;25.926;2023-02-18T00:22:13;3.47;;;2.30;;
26750;SDS011;14345;48.272;25.926;2023-02-18T00:24:39;2.58;;;2.17;;
26750;SDS011;14345;48.272;25.926;2023-02-18T00:27:05;2.22;;;1.77;;
26750;SDS011;14345;48.272;25.926;2023-02-18T00:29:31;3.38;;;1.75;;
26750;SDS011;14345;48.272;25.926;2023-02-18T00:31:57;2.53;;;1.88;;
26750;SDS011;14345;48.272;25.926;2023-02-18T00:34:23;1.80;;;1.15;;
26750;SDS011;14345;48.272;25.926;2023-02-18T00:36:49;1.98;;;1.40;;
26750;SDS011;14345;48.272;25.926;2023-02-18T00:39:15;1.63;;;1.25;;
26750;SDS011;14345;48.272;25.926;2023-02-18T00:41:42;1.52;;;1.10;;
26750;SDS011;14345;48.272;25.926;2023-02-18T00:44:08;1.83;;;1.40;;
26750;SDS011;14345;48.272;25.926;2023-02-18T00:46:35;1.05;;;0.90;;
26750;SDS011;14345;48.272;25.926;2023-02-18T00:49:02;1.30;;;0.93;;
26750;SDS011;14345;48.272;25.926;2023-02-18T00:51:28;1.00;;;0.90;;
26750;SDS011;14345;48.272;25.926;2023-02-18T00:53:55;1.38;;;1.13;;
26750;SDS011;14345;48.272;25.926;2023-02-18T00:56:21;1.48;;;1.17;;
26750;SDS011;14345;48.272;25.926;2023-02-18T00:58:47;1.30;;;0.82;;
26750;SDS011;14345;48.272;25.926;2023-02-18T01:01:13;1.63;;;1.13;;
26750;SDS011;14345;48.272;25.926;2023-02-18T01:03:40;1.25;;;1.00;;
26750;SDS011;14345;48.272;25.926;2023-02-18T01:06:06;2.63;;;1.70;;
26750;SDS011;14345;48.272;25.926;2023-02-18T01:08:33;2.20;;;1.65;;
26750;SDS011;14345;48.272;25.926;2023-02-18T01:10:59;1.73;;;1.40;;
26750;SDS011;14345;48.272;25.926;2023-02-18T01:13:26;2.85;;;1.60;;
26750;SDS011;14345;48.272;25.926;2023-02-18T01:15:52;1.80;;;1.40;;
26750;SDS011;14345;48.272;25.926;2023-02-18T01:18:18;3.63;;;1.33;;
26750;SDS011;14345;48.272;25.926;2023-02-18T01:20:44;5.30;;;1.30;;
26750;SDS011;14345;48.272;25.926;2023-02-18T01:23:11;2.22;;;1.30;;
26750;SDS011;14345;48.272;25.926;2023-02-18T01:25:37;1.60;;;1.30;;
26750;SDS011;14345;48.272;25.926;2023-02-18T01:28:04;3.00;;;1.40;;
26750;SDS011;14345;48.272;25.926;2023-02-18T01:30:31;1.58;;;1.23;;
26750;SDS011;14345;48.272;25.926;2023-02-18T01:32:57;2.95;;;1.42;;
26750;SDS011;14345;48.272;25.926;2023-02-18T01:35:23;1.40;;;1.30;;
26750;SDS011;14345;48.272;25.926;2023-02-18T01:37:49;1.90;;;1.38;;
26750;SDS011;14345;48.272;25.926;2023-02-18T01:40:18;2.42;;;1.60;;
26750;SDS011;14345;48.272;25.926;2023-02-18T01:42:44;1.48;;;1.35;;
26750;SDS011;14345;48.272;25.926;2023-02-18T01:47:55;1.80;;;1.30;;
26750;SDS011;14345;48.272;25.926;2023-02-18T01:50:21;2.30;;;1.48;;
26750;SDS011;14345;48.272;25.926;2023-02-18T01:52:47;1.42;;;1.10;;
26750;SDS011;14345;48.272;25.926;2023-02-18T01:55:13;0.90;;;0.90;;
26750;SDS011;14345;48.272;25.926;2023-02-18T01:57:39;1.33;;;1.00;;
26750;SDS011;14345;48.272;25.926;2023-02-18T02:00:07;1.20;;;1.05;;
26750;SDS011;14345;48.272;25.926;2023-02-18T02:02:36;0.98;;;0.88;;
26750;SDS011;14345;48.272;25.926;2023-02-18T02:05:04;18.85;;;1.15;;
26750;SDS011;14345;48.272;25.926;2023-02-18T02:07:30;1.00;;;0.90;;
26750;SDS011;14345;48.272;25.926;2023-02-18T02:09:56;1.63;;;0.95;;
26750;SDS011;14345;48.272;25.926;2023-02-18T02:22:53;0.60;;;0.60;;
26750;SDS011;14345;48.272;25.926;2023-02-18T02:38:45;0.50;;;0.50;;
26750;SDS011;14345;48.272;25.926;2023-02-18T02:41:29;0.80;;;0.55;;
26750;SDS011;14345;48.272;25.926;2023-02-18T02:49:31;1.20;;;0.60;;
26750;SDS011;14345;48.272;25.926;2023-02-18T02:52:00;0.68;;;0.63;;
26750;SDS011;14345;48.272;25.926;2023-02-18T02:54:28;0.40;;;0.40;;
26750;SDS011;14345;48.272;25.926;2023-02-18T02:57:08;1.70;;;0.82;;
26750;SDS011;14345;48.272;25.926;2023-02-18T02:59:35;1.15;;;0.57;;
26750;SDS011;14345;48.272;25.926;2023-02-18T03:07:37;0.50;;;0.50;;
26750;SDS011;14345;48.272;25.926;2023-02-18T03:12:53;0.40;;;0.40;;
26750;SDS011;14345;48.272;25.926;2023-02-18T03:15:26;0.40;;;0.40;;
26750;SDS011;14345;48.272;25.926;2023-02-18T03:20:42;0.70;;;0.60;;
26750;SDS011;14345;48.272;25.926;2023-02-18T03:23:13;0.30;;;0.30;;
26750;SDS011;14345;48.272;25.926;2023-02-18T03:25:41;0.40;;;0.40;;
26750;SDS011;14345;48.272;25.926;2023-02-18T03:28:11;0.57;;;0.57;;
26750;SDS011;14345;48.272;25.926;2023-02-18T03:30:42;0.40;;;0.40;;
26750;SDS011;14345;48.272;25.926;2023-02-18T03:33:10;0.38;;;0.38;;
26750;SDS011;14345;48.272;25.926;2023-02-18T03:35:37;0.40;;;0.40;;
26750;SDS011;14345;48.272;25.926;2023-02-18T03:38:20;0.30;;;0.30;;
26750;SDS011;14345;48.272;25.926;2023-02-18T03:43:14;1.85;;;0.35;;
26750;SDS011;14345;48.272;25.926;2023-02-18T03:45:40;0.40;;;0.40;;
26750;SDS011;14345;48.272;25.926;2023-02-18T03:48:06;0.30;;;0.30;;
26750;SDS011;14345;48.272;25.926;2023-02-18T03:50:32;0.30;;;0.30;;
26750;SDS011;14345;48.272;25.926;2023-02-18T03:52:58;0.30;;;0.30;;
26750;SDS011;14345;48.272;25.926;2023-02-18T03:55:24;0.30;;;0.30;;
26750;SDS011;14345;48.272;25.926;2023-02-18T03:57:51;0.40;;;0.40;;
26750;SDS011;14345;48.272;25.926;2023-02-18T04:00:17;0.30;;;0.30;;
26750;SDS011;14345;48.272;25.926;2023-02-18T04:02:44;0.43;;;0.30;;
26750;SDS011;14345;48.272;25.926;2023-02-18T04:05:10;2.03;;;1.08;;
26750;SDS011;14345;48.272;25.926;2023-02-18T04:07:36;3.67;;;2.55;;
26750;SDS011;14345;48.272;25.926;2023-02-18T04:10:03;0.85;;;0.60;;
26750;SDS011;14345;48.272;25.926;2023-02-18T04:12:29;4.25;;;2.72;;
26750;SDS011;14345;48.272;25.926;2023-02-18T04:14:55;2.03;;;1.20;;
26750;SDS011;14345;48.272;25.926;2023-02-18T04:17:21;0.50;;;0.50;;
26750;SDS011;14345;48.272;25.926;2023-02-18T04:19:47;3.72;;;2.10;;
26750;SDS011;14345;48.272;25.926;2023-02-18T04:22:13;1.23;;;1.13;;
26750;SDS011;14345;48.272;25.926;2023-02-18T04:24:39;0.50;;;0.50;;
26750;SDS011;14345;48.272;25.926;2023-02-18T04:27:05;2.90;;;0.77;;
26750;SDS011;14345;48.272;25.926;2023-02-18T04:29:31;0.40;;;0.40;;
26750;SDS011;14345;48.272;25.926;2023-02-18T04:31:57;0.60;;;0.60;;
26750;SDS011;14345;48.272;25.926;2023-02-18T04:34:23;0.50;;;0.50;;
26750;SDS011;14345;48.272;25.926;2023-02-18T04:36:49;2.05;;;0.50;;
26750;SDS011;14345;48.272;25.926;2023-02-18T04:39:15;0.63;;;0.50;;
26750;SDS011;14345;48.272;25.926;2023-02-18T04:41:41;0.82;;;0.70;;
26750;SDS011;14345;48.272;25.926;2023-02-18T04:44:07;1.10;;;0.80;;
26750;SDS011;14345;48.272;25.926;2023-02-18T04:46:34;1.17;;;0.85;;
26750;SDS011;14345;48.272;25.926;2023-02-18T04:49:00;1.20;;;1.00;;
26750;SDS011;14345;48.272;25.926;2023-02-18T04:51:26;1.40;;;0.90;;
26750;SDS011;14345;48.272;25.926;2023-02-18T04:53:53;1.50;;;1.00;;
26750;SDS011;14345;48.272;25.926;2023-02-18T04:56:19;1.02;;;0.93;;
26750;SDS011;14345;48.272;25.926;2023-02-18T04:58:45;1.02;;;0.90;;
26750;SDS011;14345;48.272;25.926;2023-02-18T05:01:11;0.60;;;0.60;;
26750;SDS011;14345;48.272;25.926;2023-02-18T05:03:37;1.08;;;1.00;;
26750;SDS011;14345;48.272;25.926;2023-02-18T05:06:03;1.73;;;1.17;;
26750;SDS011;14345;48.272;25.926;2023-02-18T05:08:29;0.85;;;0.82;;
26750;SDS011;14345;48.272;25.926;2023-02-18T05:10:55;1.52;;;1.00;;
26750;SDS011;14345;48.272;25.926;2023-02-18T05:13:21;0.77;;;0.77;;
26750;SDS011;14345;48.272;25.926;2023-02-18T05:15:48;2.13;;;1.23;;
26750;SDS011;14345;48.272;25.926;2023-02-18T05:18:14;1.02;;;0.90;;
26750;SDS011;14345;48.272;25.926;2023-02-18T05:20:40;1.48;;;0.98;;
26750;SDS011;14345;48.272;25.926;2023-02-18T05:23:06;0.68;;;0.68;;
26750;SDS011;14345;48.272;25.926;2023-02-18T05:25:32;0.98;;;0.75;;
26750;SDS011;14345;48.272;25.926;2023-02-18T05:27:58;0.80;;;0.80;;
26750;SDS011;14345;48.272;25.926;2023-02-18T05:30:24;1.05;;;0.93;;
26750;SDS011;14345;48.272;25.926;2023-02-18T05:32:50;0.80;;;0.70;;
26750;SDS011;14345;48.272;25.926;2023-02-18T05:35:16;0.60;;;0.57;;
26750;SDS011;14345;48.272;25.926;2023-02-18T05:37:42;0.60;;;0.60;;
26750;SDS011;14345;48.272;25.926;2023-02-18T05:40:09;0.50;;;0.50;;
26750;SDS011;14345;48.272;25.926;2023-02-18T05:42:35;1.17;;;0.80;;
26750;SDS011;14345;48.272;25.926;2023-02-18T05:45:02;1.23;;;0.70;;
26750;SDS011;14345;48.272;25.926;2023-02-18T05:47:28;1.23;;;1.10;;
26750;SDS011;14345;48.272;25.926;2023-02-18T05:49:54;2.03;;;1.27;;
26750;SDS011;14345;48.272;25.926;2023-02-18T05:52:20;2.35;;;1.50;;
26750;SDS011;14345;48.272;25.926;2023-02-18T05:54:46;2.80;;;1.83;;
26750;SDS011;14345;48.272;25.926;2023-02-18T05:57:13;2.60;;;1.35;;
26750;SDS011;14345;48.272;25.926;2023-02-18T05:59:40;1.23;;;1.10;;
26750;SDS011;14345;48.272;25.926;2023-02-18T06:02:06;1.98;;;1.48;;
26750;SDS011;14345;48.272;25.926;2023-02-18T06:04:32;2.35;;;1.50;;
26750;SDS011;14345;48.272;25.926;2023-02-18T06:06:58;1.95;;;1.50;;
26750;SDS011;14345;48.272;25.926;2023-02-18T06:09:24;1.88;;;1.50;;
26750;SDS011;14345;48.272;25.926;2023-02-18T06:11:50;2.42;;;1.80;;
26750;SDS011;14345;48.272;25.926;2023-02-18T06:14:16;2.00;;;1.50;;
26750;SDS011;14345;48.272;25.926;2023-02-18T06:16:42;3.15;;;1.85;;
26750;SDS011;14345;48.272;25.926;2023-02-18T06:19:08;3.63;;;2.08;;
26750;SDS011;14345;48.272;25.926;2023-02-18T06:21:34;2.65;;;2.00;;
26750;SDS011;14345;48.272;25.926;2023-02-18T06:24:00;2.80;;;1.60;;
26750;SDS011;14345;48.272;25.926;2023-02-18T06:26:26;3.15;;;2.30;;
26750;SDS011;14345;48.272;25.926;2023-02-18T06:28:52;3.42;;;2.47;;
26750;SDS011;14345;48.272;25.926;2023-02-18T06:31:18;1.98;;;1.65;;
26750;SDS011;14345;48.272;25.926;2023-02-18T06:33:44;2.42;;;1.60;;
26750;SDS011;14345;48.272;25.926;2023-02-18T06:36:11;1.60;;;1.50;;
26750;SDS011;14345;48.272;25.926;2023-02-18T06:38:38;2.03;;;1.70;;
26750;SDS011;14345;48.272;25.926;2023-02-18T06:41:05;2.10;;;1.80;;
26750;SDS011;14345;48.272;25.926;2023-02-18T06:43:31;1.90;;;1.70;;
26750;SDS011;14345;48.272;25.926;2023-02-18T06:45:57;2.47;;;1.52;;
26750;SDS011;14345;48.272;25.926;2023-02-18T06:48:23;3.22;;;1.85;;
26750;SDS011;14345;48.272;25.926;2023-02-18T06:50:49;1.98;;;1.45;;
26750;SDS011;14345;48.272;25.926;2023-02-18T06:53:15;2.70;;;1.70;;
26750;SDS011;14345;48.272;25.926;2023-02-18T06:55:41;2.17;;;1.95;;
26750;SDS011;14345;48.272;25.926;2023-02-18T06:58:08;2.15;;;1.63;;
26750;SDS011;14345;48.272;25.926;2023-02-18T07:00:34;1.58;;;1.45;;
26750;SDS011;14345;48.272;25.926;2023-02-18T07:03:00;2.08;;;1.70;;
26750;SDS011;14345;48.272;25.926;2023-02-18T07:05:26;2.88;;;2.03;;
26750;SDS011;14345;48.272;25.926;2023-02-18T07:07:52;2.28;;;1.80;;
26750;SDS011;14345;48.272;25.926;2023-02-18T07:10:19;2.22;;;1.80;;
26750;SDS011;14345;48.272;25.926;2023-02-18T07:12:45;1.83;;;1.65;;
26750;SDS011;14345;48.272;25.926;2023-02-18T07:15:11;3.70;;;2.00;;
26750;SDS011;14345;48.272;25.926;2023-02-18T07:17:37;2.30;;;1.88;;
26750;SDS011;14345;48.272;25.926;2023-02-18T07:20:04;4.18;;;2.58;;
26750;SDS011;14345;48.272;25.926;2023-02-18T07:22:31;3.25;;;2.22;;
26750;SDS011;14345;48.272;25.926;2023-02-18T07:24:57;3.05;;;2.40;;
26750;SDS011;14345;48.272;25.926;2023-02-18T07:27:23;3.50;;;1.88;;
26750;SDS011;14345;48.272;25.926;2023-02-18T07:29:49;3.25;;;2.60;;
26750;SDS011;14345;48.272;25.926;2023-02-18T07:32:16;4.65;;;2.40;;
26750;SDS011;14345;48.272;25.926;2023-02-18T07:34:43;3.20;;;2.42;;
26750;SDS011;14345;48.272;25.926;2023-02-18T07:37:09;4.68;;;3.03;;
26750;SDS011;14345;48.272;25.926;2023-02-18T07:39:39;3.42;;;2.58;;
26750;SDS011;14345;48.272;25.926;2023-02-18T07:42:06;3.03;;;2.30;;
26750;SDS011;14345;48.272;25.926;2023-02-18T07:44:32;3.17;;;2.42;;
26750;SDS011;14345;48.272;25.926;2023-02-18T07:46:58;3.28;;;2.58;;
26750;SDS011;14345;48.272;25.926;2023-02-18T07:49:25;2.63;;;2.13;;
26750;SDS011;14345;48.272;25.926;2023-02-18T07:51:51;1.77;;;1.65;;
26750;SDS011;14345;48.272;25.926;2023-02-18T07:54:18;2.60;;;2.00;;
26750;SDS011;14345;48.272;25.926;2023-02-18T07:56:44;2.08;;;1.70;;
26750;SDS011;14345;48.272;25.926;2023-02-18T07:59:10;3.28;;;2.35;;
26750;SDS011;14345;48.272;25.926;2023-02-18T08:01:38;2.20;;;2.00;;
26750;SDS011;14345;48.272;25.926;2023-02-18T08:04:04;2.97;;;2.00;;
26750;SDS011;14345;48.272;25.926;2023-02-18T08:06:32;2.92;;;1.90;;
26750;SDS011;14345;48.272;25.926;2023-02-18T08:08:58;2.17;;;1.80;;
26750;SDS011;14345;48.272;25.926;2023-02-18T08:11:24;2.55;;;2.10;;
26750;SDS011;14345;48.272;25.926;2023-02-18T08:13:50;2.47;;;1.77;;
26750;SDS011;14345;48.272;25.926;2023-02-18T08:16:17;2.40;;;2.20;;
26750;SDS011;14345;48.272;25.926;2023-02-18T08:18:44;3.10;;;2.00;;
26750;SDS011;14345;48.272;25.926;2023-02-18T08:21:12;2.47;;;1.75;;
26750;SDS011;14345;48.272;25.926;2023-02-18T08:23:38;2.15;;;1.63;;
26750;SDS011;14345;48.272;25.926;2023-02-18T08:26:04;2.35;;;1.50;;
26750;SDS011;14345;48.272;25.926;2023-02-18T08:28:30;1.77;;;1.23;;
26750;SDS011;14345;48.272;25.926;2023-02-18T08:30:56;3.00;;;1.30;;
26750;SDS011;14345;48.272;25.926;2023-02-18T08:33:23;1.92;;;1.30;;
26750;SDS011;14345;48.272;25.926;2023-02-18T08:35:50;2.45;;;1.33;;
26750;SDS011;14345;48.272;25.926;2023-02-18T08:38:16;2.75;;;1.30;;
26750;SDS011;14345;48.272;25.926;2023-02-18T08:40:43;2.65;;;1.58;;
26750;SDS011;14345;48.272;25.926;2023-02-18T08:43:10;2.08;;;1.27;;
26750;SDS011;14345;48.272;25.926;2023-02-18T08:45:39;3.42;;;1.40;;
26750;SDS011;14345;48.272;25.926;2023-02-18T08:48:06;1.73;;;1.35;;
26750;SDS011;14345;48.272;25.926;2023-02-18T08:50:33;4.78;;;1.40;;
26750;SDS011;14345;48.272;25.926;2023-02-18T08:52:59;4.97;;;1.42;;
26750;SDS011;14345;48.272;25.926;2023-02-18T08:55:27;1.40;;;1.10;;
26750;SDS011;14345;48.272;25.926;2023-02-18T08:57:53;3.88;;;1.30;;
26750;SDS011;14345;48.272;25.926;2023-02-18T09:00:19;3.47;;;2.25;;
26750;SDS011;14345;48.272;25.926;2023-02-18T09:02:45;2.28;;;1.10;;
26750;SDS011;14345;48.272;25.926;2023-02-18T09:05:12;4.60;;;1.50;;
26750;SDS011;14345;48.272;25.926;2023-02-18T09:07:38;2.55;;;1.45;;
26750;SDS011;14345;48.272;25.926;2023-02-18T09:10:05;2.78;;;1.15;;
26750;SDS011;14345;48.272;25.926;2023-02-18T09:12:31;3.10;;;1.20;;
26750;SDS011;14345;48.272;25.926;2023-02-18T09:14:57;2.63;;;1.38;;
26750;SDS011;14345;48.272;25.926;2023-02-18T09:17:24;5.65;;;1.70;;
26750;SDS011;14345;48.272;25.926;2023-02-18T09:19:50;3.25;;;1.70;;
26750;SDS011;14345;48.272;25.926;2023-02-18T09:22:17;3.03;;;1.50;;
26750;SDS011;14345;48.272;25.926;2023-02-18T09:24:43;1.67;;;1.40;;
26750;SDS011;14345;48.272;25.926;2023-02-18T09:27:09;4.53;;;1.60;;
26750;SDS011;14345;48.272;25.926;2023-02-18T09:29:36;2.92;;;1.35;;
26750;SDS011;14345;48.272;25.926;2023-02-18T09:32:03;2.90;;;1.20;;
26750;SDS011;14345;48.272;25.926;2023-02-18T09:34:29;2.35;;;1.13;;
26750;SDS011;14345;48.272;25.926;2023-02-18T09:36:55;2.80;;;1.52;;
26750;SDS011;14345;48.272;25.926;2023-02-18T09:39:21;2.60;;;1.60;;
26750;SDS011;14345;48.272;25.926;2023-02-18T09:41:52;3.33;;;1.58;;
26750;SDS011;14345;48.272;25.926;2023-02-18T09:44:53;2.80;;;1.55;;
26750;SDS011;14345;48.272;25.926;2023-02-18T09:49:39;2.30;;;1.33;;
26750;SDS011;14345;48.272;25.926;2023-02-18T09:52:13;5.55;;;1.60;;
26750;SDS011;14345;48.272;25.926;2023-02-18T09:54:39;5.43;;;1.85;;
26750;SDS011;14345;48.272;25.926;2023-02-18T09:57:05;4.35;;;1.73;;
26750;SDS011;14345;48.272;25.926;2023-02-18T09:59:34;2.95;;;1.80;;
26750;SDS011;14345;48.272;25.926;2023-02-18T10:02:00;5.55;;;1.40;;
26750;SDS011;14345;48.272;25.926;2023-02-18T10:04:38;4.53;;;1.92;;
26750;SDS011;14345;48.272;25.926;2023-02-18T10:07:05;3.15;;;1.70;;
26750;SDS011;14345;48.272;25.926;2023-02-18T10:09:36;6.70;;;2.03;;
26750;SDS011;14345;48.272;25.926;2023-02-18T10:14:41;4.38;;;2.00;;
26750;SDS011;14345;48.272;25.926;2023-02-18T10:17:08;2.92;;;1.83;;
26750;SDS011;14345;48.272;25.926;2023-02-18T10:19:36;2.42;;;1.40;;
26750;SDS011;14345;48.272;25.926;2023-02-18T10:22:06;3.25;;;1.88;;
26750;SDS011;14345;48.272;25.926;2023-02-18T10:27:08;4.78;;;1.77;;
26750;SDS011;14345;48.272;25.926;2023-02-18T10:29:35;3.35;;;1.70;;
26750;SDS011;14345;48.272;25.926;2023-02-18T10:32:11;2.40;;;1.60;;
26750;SDS011;14345;48.272;25.926;2023-02-18T10:34:48;2.20;;;1.42;;
26750;SDS011;14345;48.272;25.926;2023-02-18T10:45:12;4.85;;;1.67;;
26750;SDS011;14345;48.272;25.926;2023-02-18T10:50:30;2.15;;;1.13;;
26750;SDS011;14345;48.272;25.926;2023-02-18T10:52:59;2.33;;;0.90;;
26750;SDS011;14345;48.272;25.926;2023-02-18T10:58:32;1.88;;;1.13;;
26750;SDS011;14345;48.272;25.926;2023-02-18T11:00:59;2.33;;;0.98;;
26750;SDS011;14345;48.272;25.926;2023-02-18T11:08:43;8.52;;;1.20;;
26750;SDS011;14345;48.272;25.926;2023-02-18T11:11:43;4.05;;;1.25;;
26750;SDS011;14345;48.272;25.926;2023-02-18T11:14:03;2.33;;;1.10;;
26750;SDS011;14345;48.272;25.926;2023-02-18T11:16:39;6.13;;;1.33;;
26750;SDS011;14345;48.272;25.926;2023-02-18T11:21:50;1.55;;;1.00;;
26750;SDS011;14345;48.272;25.926;2023-02-18T11:24:16;2.20;;;1.00;;
26750;SDS011;14345;48.272;25.926;2023-02-18T11:26:44;1.60;;;0.90;;
26750;SDS011;14345;48.272;25.926;2023-02-18T11:31:41;2.20;;;1.20;;
26750;SDS011;14345;48.272;25.926;2023-02-18T11:34:21;1.60;;;1.00;;
26750;SDS011;14345;48.272;25.926;2023-02-18T11:36:48;2.28;;;1.05;;
26750;SDS011;14345;48.272;25.926;2023-02-18T11:39:22;5.95;;;1.10;;
26750;SDS011;14345;48.272;25.926;2023-02-18T11:46:56;4.72;;;1.50;;
26750;SDS011;14345;48.272;25.926;2023-02-18T11:49:23;3.22;;;1.10;;
26750;SDS011;14345;48.272;25.926;2023-02-18T11:51:50;3.70;;;1.73;;
26750;SDS011;14345;48.272;25.926;2023-02-18T11:54:22;1.63;;;1.25;;
26750;SDS011;14345;48.272;25.926;2023-02-18T11:59:21;2.00;;;1.20;;
26750;SDS011;14345;48.272;25.926;2023-02-18T12:01:51;3.00;;;1.48;;
26750;SDS011;14345;48.272;25.926;2023-02-18T12:04:25;1.80;;;1.23;;
26750;SDS011;14345;48.272;25.926;2023-02-18T12:07:15;3.67;;;1.27;;
26750;SDS011;14345;48.272;25.926;2023-02-18T12:09:45;2.35;;;0.98;;
26750;SDS011;14345;48.272;25.926;2023-02-18T12:12:17;3.03;;;0.93;;
26750;SDS011;14345;48.272;25.926;2023-02-18T12:14:44;1.77;;;1.25;;
26750;SDS011;14345;48.272;25.926;2023-02-18T12:22:20;4.28;;;1.20;;
26750;SDS011;14345;48.272;25.926;2023-02-18T12:27:37;3.47;;;1.20;;
26750;SDS011;14345;48.272;25.926;2023-02-18T12:30:17;1.30;;;0.93;;
26750;SDS011;14345;48.272;25.926;2023-02-18T12:35:45;3.20;;;1.38;;
26750;SDS011;14345;48.272;25.926;2023-02-18T12:38:24;1.35;;;1.05;;
26750;SDS011;14345;48.272;25.926;2023-02-18T12:43:42;2.45;;;1.40;;
26750;SDS011;14345;48.272;25.926;2023-02-18T12:51:31;2.53;;;1.48;;
26750;SDS011;14345;48.272;25.926;2023-02-18T13:14:03;4.05;;;1.83;;
26750;SDS011;14345;48.272;25.926;2023-02-18T13:16:34;3.17;;;1.58;;
26750;SDS011;14345;48.272;25.926;2023-02-18T13:19:02;3.03;;;1.48;;
26750;SDS011;14345;48.272;25.926;2023-02-18T13:21:32;1.58;;;1.08;;
26750;SDS011;14345;48.272;25.926;2023-02-18T13:24:02;2.25;;;1.25;;
26750;SDS011;14345;48.272;25.926;2023-02-18T13:26:30;2.80;;;1.33;;
26750;SDS011;14345;48.272;25.926;2023-02-18T13:39:52;2.13;;;1.60;;
26750;SDS011;14345;48.272;25.926;2023-02-18T13:42:35;2.95;;;1.75;;
26750;SDS011;14345;48.272;25.926;2023-02-18T13:47:34;2.40;;;1.60;;
26750;SDS011;14345;48.272;25.926;2023-02-18T13:52:39;4.18;;;1.90;;
26750;SDS011;14345;48.272;25.926;2023-02-18T13:55:05;2.83;;;1.33;;
26750;SDS011;14345;48.272;25.926;2023-02-18T13:57:31;2.28;;;1.70;;
26750;SDS011;14345;48.272;25.926;2023-02-18T14:00:03;3.47;;;1.95;;
26750;SDS011;14345;48.272;25.926;2023-02-18T14:02:32;2.30;;;1.52;;
26750;SDS011;14345;48.272;25.926;2023-02-18T14:10:00;2.85;;;1.80;;
26750;SDS011;14345;48.272;25.926;2023-02-18T14:12:37;4.53;;;1.75;;
26750;SDS011;14345;48.272;25.926;2023-02-18T14:20:47;4.88;;;1.80;;
26750;SDS011;14345;48.272;25.926;2023-02-18T14:25:48;2.63;;;2.00;;
26750;SDS011;14345;48.272;25.926;2023-02-18T14:31:00;5.10;;;2.10;;
26750;SDS011;14345;48.272;25.926;2023-02-18T14:33:28;4.50;;;2.20;;
26750;SDS011;14345;48.272;25.926;2023-02-18T14:35:56;5.28;;;1.80;;
26750;SDS011;14345;48.272;25.926;2023-02-18T14:46:19;4.20;;;2.28;;
26750;SDS011;14345;48.272;25.926;2023-02-18T14:49:01;3.88;;;2.22;;
26750;SDS011;14345;48.272;25.926;2023-02-18T14:51:31;3.50;;;2.00;;
26750;SDS011;14345;48.272;25.926;2023-02-18T14:54:01;3.92;;;1.98;;
26750;SDS011;14345;48.272;25.926;2023-02-18T14:56:29;2.10;;;1.80;;
26750;SDS011;14345;48.272;25.926;2023-02-18T14:58:56;3.90;;;2.10;;
26750;SDS011;14345;48.272;25.926;2023-02-18T15:01:30;2.53;;;1.92;;
26750;SDS011;14345;48.272;25.926;2023-02-18T15:03:56;5.97;;;2.45;;
26750;SDS011;14345;48.272;25.926;2023-02-18T15:06:30;2.22;;;1.85;;
26750;SDS011;14345;48.272;25.926;2023-02-18T15:09:00;4.15;;;2.00;;
26750;SDS011;14345;48.272;25.926;2023-02-18T15:11:34;4.05;;;1.70;;
26750;SDS011;14345;48.272;25.926;2023-02-18T15:16:30;3.13;;;1.75;;
26750;SDS011;14345;48.272;25.926;2023-02-18T15:18:57;3.92;;;2.17;;
26750;SDS011;14345;48.272;25.926;2023-02-18T15:21:31;4.72;;;2.17;;
26750;SDS011;14345;48.272;25.926;2023-02-18T15:23:59;5.10;;;2.15;;
26750;SDS011;14345;48.272;25.926;2023-02-18T15:26:27;3.08;;;2.13;;
26750;SDS011;14345;48.272;25.926;2023-02-18T15:28:55;4.68;;;2.10;;
26750;SDS011;14345;48.272;25.926;2023-02-18T15:31:26;4.85;;;2.25;;
26750;SDS011;14345;48.272;25.926;2023-02-18T15:33:52;3.78;;;2.22;;
26750;SDS011;14345;48.272;25.926;2023-02-18T15:36:19;4.03;;;2.35;;
26750;SDS011;14345;48.272;25.926;2023-02-18T15:38:45;4.10;;;2.55;;
26750;SDS011;14345;48.272;25.926;2023-02-18T15:41:15;4.32;;;2.55;;
26750;SDS011;14345;48.272;25.926;2023-02-18T15:43:54;4.88;;;3.00;;
26750;SDS011;14345;48.272;25.926;2023-02-18T15:46:20;6.68;;;3.10;;
26750;SDS011;14345;48.272;25.926;2023-02-18T15:48:50;6.95;;;3.03;;
26750;SDS011;14345;48.272;25.926;2023-02-18T15:51:18;4.95;;;3.38;;
26750;SDS011;14345;48.272;25.926;2023-02-18T15:53:46;4.05;;;2.47;;
26750;SDS011;14345;48.272;25.926;2023-02-18T15:56:14;5.55;;;2.97;;
26750;SDS011;14345;48.272;25.926;2023-02-18T15:58:41;3.13;;;2.28;;
26750;SDS011;14345;48.272;25.926;2023-02-18T16:01:22;4.63;;;2.30;;
26750;SDS011;14345;48.272;25.926;2023-02-18T16:03:49;4.30;;;2.45;;
26750;SDS011;14345;48.272;25.926;2023-02-18T16:06:23;3.67;;;2.70;;
26750;SDS011;14345;48.272;25.926;2023-02-18T16:09:03;4.28;;;2.90;;
26750;SDS011;14345;48.272;25.926;2023-02-18T16:11:36;5.15;;;3.13;;
26750;SDS011;14345;48.272;25.926;2023-02-18T16:14:03;5.55;;;2.90;;
26750;SDS011;14345;48.272;25.926;2023-02-18T16:16:32;5.10;;;2.95;;
26750;SDS011;14345;48.272;25.926;2023-02-18T16:18:58;6.03;;;3.50;;
26750;SDS011;14345;48.272;25.926;2023-02-18T16:23:51;3.85;;;2.60;;
26750;SDS011;14345;48.272;25.926;2023-02-18T16:28:51;2.72;;;1.90;;
26750;SDS011;14345;48.272;25.926;2023-02-18T16:31:17;2.85;;;1.95;;
26750;SDS011;14345;48.272;25.926;2023-02-18T16:33:45;3.28;;;2.25;;
26750;SDS011;14345;48.272;25.926;2023-02-18T16:36:12;4.85;;;2.50;;
26750;SDS011;14345;48.272;25.926;2023-02-18T16:38:42;3.38;;;2.38;;
26750;SDS011;14345;48.272;25.926;2023-02-18T16:41:09;3.30;;;2.10;;
26750;SDS011;14345;48.272;25.926;2023-02-18T16:43:35;4.75;;;2.38;;
26750;SDS011;14345;48.272;25.926;2023-02-18T16:46:06;4.43;;;2.30;;
26750;SDS011;14345;48.272;25.926;2023-02-18T16:48:37;4.00;;;2.63;;
26750;SDS011;14345;48.272;25.926;2023-02-18T16:51:05;3.13;;;2.05;;
26750;SDS011;14345;48.272;25.926;2023-02-18T16:53:32;2.63;;;1.80;;
26750;SDS011;14345;48.272;25.926;2023-02-18T16:55:58;3.05;;;2.05;;
26750;SDS011;14345;48.272;25.926;2023-02-18T16:58:25;3.83;;;2.42;;
26750;SDS011;14345;48.272;25.926;2023-02-18T17:00:51;4.07;;;2.33;;
26750;SDS011;14345;48.272;25.926;2023-02-18T17:03:18;4.43;;;2.42;;
26750;SDS011;14345;48.272;25.926;2023-02-18T17:05:44;6.20;;;2.65;;
26750;SDS011;14345;48.272;25.926;2023-02-18T17:08:20;4.53;;;2.60;;
26750;SDS011;14345;48.272;25.926;2023-02-18T17:10:48;6.57;;;3.55;;
26750;SDS011;14345;48.272;25.926;2023-02-18T17:13:15;5.25;;;3.70;;
26750;SDS011;14345;48.272;25.926;2023-02-18T17:15:42;7.35;;;4.10;;
26750;SDS011;14345;48.272;25.926;2023-02-18T17:18:08;8.93;;;4.30;;
26750;SDS011;14345;48.272;25.926;2023-02-18T17:20:35;8.15;;;3.80;;
26750;SDS011;14345;48.272;25.926;2023-02-18T17:23:01;8.68;;;4.53;;
26750;SDS011;14345;48.272;25.926;2023-02-18T17:25:28;7.07;;;4.15;;
26750;SDS011;14345;48.272;25.926;2023-02-18T17:27:54;8.23;;;4.70;;